Big Bear Station Historical Data
Daily Summary for January 2, 2017 Units:  English    Metric   Both
« Previous Day
Next Day »
Daily Weekly Monthly Yearly Custom
  High: Low: Average:
Temperature: 35.1 °F 23.7 °F 28.2 °F
Dew Point: 29.0 °F 18.1 °F 24.3 °F
Humidity: 96 % 67 % 86 %
Wind Speed: 0.0 mph 0.0 mph 0 mph
Wind Gust: -999.0 mph - -
Wind:- - North
Pressure: 23.44 in 23.30 in -
Precipitation: 0.00 in    
Historical Graphs
 
 
Tabular Data for January 2, 2017
Time Temperature Dew Point Pressure Wind Wind Speed Wind Gust Humidity Rainfall Rate (Hourly)
00:01 24.8 °F 21.5 °F 23.32 in Calm   -999.0 mph 87 % 0 in
00:17 24.6 °F 21.3 °F 23.30 in Calm   -999.0 mph 87 % 0 in
00:32 24.6 °F 20.7 °F 23.30 in Calm   -999.0 mph 85 % 0 in
00:47 26.1 °F 18.3 °F 23.30 in Calm   -999.0 mph 72 % 0 in
01:02 25.5 °F 18.4 °F 23.30 in Calm   -999.0 mph 74 % 0 in
01:17 25.2 °F 18.1 °F 23.31 in Calm   -999.0 mph 74 % 0 in
01:33 24.4 °F 19.1 °F 23.31 in Calm   -999.0 mph 80 % 0 in
01:48 23.7 °F 19.9 °F 23.31 in Calm   -999.0 mph 85 % 0 in
02:03 24.1 °F 19.4 °F 23.31 in Calm   -999.0 mph 82 % 0 in
02:18 24.1 °F 21.1 °F 23.31 in Calm   -999.0 mph 88 % 0 in
02:33 24.1 °F 22.6 °F 23.32 in Calm   -999.0 mph 94 % 0 in
02:49 24.1 °F 23.1 °F 23.32 in Calm   -999.0 mph 96 % 0 in
03:04 24.1 °F 22.9 °F 23.32 in Calm   -999.0 mph 95 % 0 in
03:19 24.6 °F 21.6 °F 23.31 in Calm   -999.0 mph 88 % 0 in
03:34 25.2 °F 21.3 °F 23.31 in Calm   -999.0 mph 85 % 0 in
03:49 25.3 °F 20.3 °F 23.31 in Calm   -999.0 mph 81 % 0 in
04:05 25.2 °F 21.9 °F 23.31 in Calm   -999.0 mph 87 % 0 in
04:20 26.2 °F 20.6 °F 23.31 in Calm   -999.0 mph 79 % 0 in
04:35 25.3 °F 23.3 °F 23.32 in Calm   -999.0 mph 92 % 0 in
04:50 25.2 °F 24.0 °F 23.32 in Calm   -999.0 mph 95 % 0 in
05:06 25.3 °F 24.1 °F 23.31 in Calm   -999.0 mph 95 % 0 in
05:21 25.7 °F 24.0 °F 23.32 in Calm   -999.0 mph 93 % 0 in
05:36 25.5 °F 24.5 °F 23.32 in Calm   -999.0 mph 96 % 0 in
05:51 25.5 °F 24.5 °F 23.33 in Calm   -999.0 mph 96 % 0 in
06:06 25.7 °F 24.0 °F 23.32 in Calm   -999.0 mph 93 % 0 in
06:21 26.2 °F 22.9 °F 23.32 in Calm   -999.0 mph 87 % 0 in
06:37 26.8 °F 21.8 °F 23.33 in Calm   -999.0 mph 81 % 0 in
06:54 26.6 °F 23.3 °F 23.34 in Calm   -999.0 mph 87 % 0 in
07:09 26.4 °F 23.3 °F 23.34 in Calm   -999.0 mph 88 % 0 in
07:39 27.1 °F 23.7 °F 23.35 in Calm   -999.0 mph 87 % 0 in
07:54 27.1 °F 24.0 °F 23.35 in Calm   -999.0 mph 88 % 0 in
08:10 28.2 °F 23.7 °F 23.36 in Calm   -999.0 mph 83 % 0 in
08:25 29.1 °F 24.6 °F 23.36 in Calm   -999.0 mph 83 % 0 in
08:40 30.4 °F 24.7 °F 23.36 in Calm   -999.0 mph 79 % 0 in
08:55 30.7 °F 24.7 °F 23.36 in Calm   -999.0 mph 78 % 0 in
09:11 30.4 °F 26.1 °F 23.37 in Calm   -999.0 mph 84 % 0 in
09:26 31.3 °F 26.7 °F 23.37 in Calm   -999.0 mph 83 % 0 in
09:41 31.8 °F 27.2 °F 23.38 in Calm   -999.0 mph 83 % 0 in
09:56 33.3 °F 27.2 °F 23.38 in Calm   -999.0 mph 78 % 0 in
10:11 34.0 °F 27.5 °F 23.38 in Calm   -999.0 mph 77 % 0 in
10:27 33.8 °F 28.6 °F 23.39 in Calm   -999.0 mph 81 % 0 in
10:42 31.5 °F 27.8 °F 23.38 in Calm   -999.0 mph 86 % 0 in
10:57 30.7 °F 27.3 °F 23.38 in Calm   -999.0 mph 87 % 0 in
11:12 30.6 °F 27.5 °F 23.38 in Calm   -999.0 mph 88 % 0 in
11:27 31.6 °F 28.2 °F 23.38 in Calm   -999.0 mph 87 % 0 in
11:43 31.5 °F 28.1 °F 23.37 in Calm   -999.0 mph 87 % 0 in
11:58 32.0 °F 28.3 °F 23.37 in Calm   -999.0 mph 86 % 0 in
12:13 31.5 °F 28.1 °F 23.37 in Calm   -999.0 mph 87 % 0 in
12:28 31.5 °F 28.4 °F 23.37 in Calm   -999.0 mph 88 % 0 in
12:43 32.2 °F 28.5 °F 23.37 in Calm   -999.0 mph 86 % 0 in
12:59 34.0 °F 27.2 °F 23.36 in Calm   -999.0 mph 76 % 0 in
13:14 32.5 °F 27.0 °F 23.36 in Calm   -999.0 mph 80 % 0 in
13:29 32.5 °F 27.9 °F 23.36 in Calm   -999.0 mph 83 % 0 in
13:44 33.4 °F 24.3 °F 23.36 in Calm   -999.0 mph 69 % 0 in
13:59 34.3 °F 25.2 °F 23.36 in Calm   -999.0 mph 69 % 0 in
14:15 35.1 °F 25.2 °F 23.35 in Calm   -999.0 mph 67 % 0 in
14:30 35.1 °F 25.2 °F 23.36 in Calm   -999.0 mph 67 % 0 in
14:45 34.5 °F 26.1 °F 23.36 in Calm   -999.0 mph 71 % 0 in
15:00 33.8 °F 25.7 °F 23.36 in Calm   -999.0 mph 72 % 0 in
15:16 32.2 °F 29.0 °F 23.36 in Calm   -999.0 mph 88 % 0 in
15:31 31.6 °F 29.0 °F 23.37 in Calm   -999.0 mph 90 % 0 in
15:46 31.6 °F 27.6 °F 23.37 in Calm   -999.0 mph 85 % 0 in
16:01 30.9 °F 28.6 °F 23.37 in Calm   -999.0 mph 91 % 0 in
16:16 30.4 °F 28.4 °F 23.38 in Calm   -999.0 mph 92 % 0 in
16:32 30.0 °F 28.0 °F 23.38 in Calm   -999.0 mph 92 % 0 in
16:47 29.7 °F 27.4 °F 23.38 in Calm   -999.0 mph 91 % 0 in
17:02 29.1 °F 27.1 °F 23.38 in Calm   -999.0 mph 92 % 0 in
17:17 28.8 °F 27.0 °F 23.39 in Calm   -999.0 mph 93 % 0 in
17:32 28.4 °F 26.4 °F 23.39 in Calm   -999.0 mph 92 % 0 in
17:48 28.2 °F 25.9 °F 23.40 in Calm   -999.0 mph 91 % 0 in
18:03 27.9 °F 25.6 °F 23.40 in Calm   -999.0 mph 91 % 0 in
18:18 27.7 °F 26.2 °F 23.41 in Calm   -999.0 mph 94 % 0 in
18:33 27.3 °F 25.8 °F 23.41 in Calm   -999.0 mph 94 % 0 in
18:48 27.0 °F 25.5 °F 23.41 in Calm   -999.0 mph 94 % 0 in
19:04 27.0 °F 25.8 °F 23.41 in Calm   -999.0 mph 95 % 0 in
19:19 26.8 °F 25.6 °F 23.41 in Calm   -999.0 mph 95 % 0 in
19:34 26.6 °F 25.1 °F 23.41 in Calm   -999.0 mph 94 % 0 in
19:49 26.4 °F 25.2 °F 23.41 in Calm   -999.0 mph 95 % 0 in
20:04 26.4 °F 25.4 °F 23.41 in Calm   -999.0 mph 96 % 0 in
20:20 26.2 °F 24.2 °F 23.41 in Calm   -999.0 mph 92 % 0 in
20:35 26.2 °F 23.4 °F 23.41 in Calm   -999.0 mph 89 % 0 in
20:50 26.4 °F 23.1 °F 23.41 in Calm   -999.0 mph 87 % 0 in
21:05 27.0 °F 22.2 °F 23.41 in Calm   -999.0 mph 82 % 0 in
21:21 26.6 °F 20.7 °F 23.42 in Calm   -999.0 mph 78 % 0 in
21:36 26.2 °F 22.3 °F 23.42 in Calm   -999.0 mph 85 % 0 in
21:51 25.9 °F 22.0 °F 23.42 in Calm   -999.0 mph 85 % 0 in
22:06 25.5 °F 21.6 °F 23.42 in Calm   -999.0 mph 85 % 0 in
22:21 25.7 °F 21.8 °F 23.43 in Calm   -999.0 mph 85 % 0 in
22:37 25.5 °F 22.4 °F 23.43 in Calm   -999.0 mph 88 % 0 in
22:52 25.5 °F 21.9 °F 23.43 in Calm   -999.0 mph 86 % 0 in
23:07 25.5 °F 21.3 °F 23.44 in Calm   -999.0 mph 84 % 0 in
23:22 25.3 °F 21.1 °F 23.44 in Calm   -999.0 mph 84 % 0 in
23:37 26.1 °F 19.6 °F 23.44 in Calm   -999.0 mph 76 % 0 in
23:53 25.9 °F 18.1 °F 23.44 in Calm   -999.0 mph 72 % 0 in
Big Bear CA Weather
Compliments of Weather Underground - 1.5 mb